.
WxDataArchive / Data Records for 2012-03-01
2012-02-29 March 2012 2012-03-02

Data Records for Thursday, 01 March 2012

Time	Temp	Chill	HIndex	Humid	Dewpt	 Wind 	HiWind	WindDir	Rain 	Barom 
-----	----	-----	------	-----	-----	------	------	-------	-----	----- 
00:00	39.6	35.3	39.6	58	26.1	6	12	270	0.00	29.627 
00:05	39.3	36.5	39.3	60	26.6	4	9	270	0.00	29.627 
00:10	39.2	39.2	39.2	61	26.9	3	7	248	0.00	29.627 
00:15	39.1	39.1	39.1	61	26.8	3	10	248	0.00	29.620 
00:20	38.9	35.2	38.9	61	26.6	5	11	248	0.00	29.620 
00:25	38.8	35.1	38.8	61	26.5	5	11	270	0.00	29.620 
00:30	38.6	34.8	38.6	61	26.3	5	13	270	0.00	29.618 
00:35	38.3	35.4	38.3	61	26.0	4	10	248	0.00	29.618 
00:40	38.0	35.0	38.0	62	26.2	4	11	248	0.00	29.618 
00:45	37.9	34.0	37.9	62	26.1	5	11	270	0.00	29.620 
00:50	37.8	33.9	37.8	63	26.4	5	14	248	0.00	29.620 
00:55	37.8	34.8	37.8	64	26.7	4	10	248	0.00	29.620 
01:00	37.8	33.9	37.8	64	26.7	5	12	270	0.00	29.623 
01:05	37.8	34.8	37.8	64	26.7	4	10	248	0.00	29.623 
01:10	37.8	37.8	37.8	65	27.1	3	7	270	0.00	29.623 
01:15	37.8	34.8	37.8	65	27.1	4	9	248	0.00	29.623 
01:20	37.8	33.9	37.8	65	27.1	5	9	270	0.00	29.623 
01:25	37.8	34.8	37.8	66	27.5	4	10	270	0.00	29.623 
01:30	37.6	34.5	37.6	66	27.3	4	7	248	0.00	29.627 
01:35	37.6	37.6	37.6	66	27.3	3	8	270	0.00	29.627 
01:40	37.6	37.6	37.6	67	27.7	3	7	270	0.00	29.627 
01:45	37.6	34.5	37.6	67	27.7	4	7	270	0.00	29.631 
01:50	37.6	33.7	37.6	67	27.7	5	9	270	0.00	29.631 
01:55	37.5	37.5	37.5	68	27.9	3	6	270	0.00	29.631 
02:00	37.5	33.5	37.5	68	27.9	5	11	270	0.00	29.630 
02:05	37.5	34.4	37.5	68	27.9	4	7	248	0.00	29.630 
02:10	37.5	33.5	37.5	68	27.9	5	10	270	0.00	29.630 
02:15	37.5	34.4	37.5	68	27.9	4	11	248	0.00	29.635 
02:20	37.3	34.2	37.3	68	27.7	4	10	248	0.00	29.635 
02:25	37.3	33.3	37.3	68	27.7	5	10	270	0.00	29.635 
02:30	37.3	33.3	37.3	68	27.7	5	9	248	0.00	29.639 
02:35	37.3	33.3	37.3	69	28.1	5	10	270	0.00	29.639 
02:40	37.3	34.2	37.3	69	28.1	4	12	270	0.00	29.639 
02:45	37.2	34.1	37.2	69	28.0	4	8	270	0.00	29.643 
02:50	37.2	33.2	37.2	69	28.0	5	11	270	0.00	29.643 
02:55	37.2	34.1	37.2	69	28.0	4	7	248	0.00	29.643 
03:00	37.2	33.2	37.2	69	28.0	5	14	248	0.00	29.644 
03:05	37.2	33.2	37.2	69	28.0	5	8	270	0.00	29.644 
03:10	37.2	34.1	37.2	69	28.0	4	7	270	0.00	29.644 
03:15	37.2	37.2	37.2	70	28.3	3	6	270	0.00	29.646 
03:20	37.2	34.1	37.2	70	28.3	4	14	270	0.00	29.646 
03:25	37.2	34.1	37.2	70	28.3	4	7	270	0.00	29.646 
03:30	37.2	37.2	37.2	71	28.7	3	9	248	0.00	29.644 
03:35	37.2	34.1	37.2	71	28.7	4	9	248	0.00	29.644 
03:40	37.2	34.1	37.2	71	28.7	4	13	248	0.00	29.644 
03:45	37.2	34.1	37.2	71	28.7	4	8	248	0.00	29.647 
03:50	37.0	33.9	37.0	71	28.5	4	7	270	0.00	29.647 
03:55	37.0	33.9	37.0	72	28.8	4	12	248	0.00	29.647 
04:00	36.9	36.9	36.9	72	28.7	3	8	248	0.00	29.651 
04:05	36.8	36.8	36.8	73	29.0	3	7	270	0.00	29.651 
04:10	36.8	33.6	36.8	73	29.0	4	7	248	0.00	29.651 
04:15	36.6	36.6	36.6	73	28.8	3	8	248	0.00	29.660 
04:20	36.6	33.4	36.6	74	29.1	4	10	248	0.00	29.660 
04:25	36.5	33.3	36.5	74	29.0	4	11	248	0.00	29.660 
04:30	36.5	36.5	36.5	75	29.3	3	8	248	0.00	29.662 
04:35	36.3	33.0	36.3	75	29.1	4	8	248	0.00	29.662 
04:40	36.3	36.3	36.3	76	29.5	3	5	248	0.00	29.662 
04:45	36.3	36.3	36.3	76	29.5	3	9	248	0.00	29.669 
04:50	36.3	36.3	36.3	76	29.5	3	7	248	0.00	29.669 
04:55	36.2	36.2	36.2	77	29.7	3	5	270	0.00	29.669 
05:00	36.2	36.2	36.2	77	29.7	3	5	248	0.00	29.675 
05:05	36.2	36.2	36.2	77	29.7	3	9	270	0.00	29.675 
05:10	36.0	36.0	36.0	77	29.5	2	5	248	0.00	29.675 
05:15	36.0	36.0	36.0	77	29.5	3	5	248	0.00	29.679 
05:20	36.2	36.2	36.2	78	30.0	2	5	248	0.00	29.679 
05:25	36.0	36.0	36.0	78	29.8	3	6	248	0.00	29.679 
05:30	36.0	36.0	36.0	79	30.1	3	6	248	0.00	29.691 
05:35	35.9	35.9	35.9	80	30.3	3	6	248	0.00	29.691 
05:40	35.9	35.9	35.9	81	30.6	3	5	248	0.00	29.691 
05:45	35.8	35.8	35.8	81	30.6	2	4	248	0.00	29.698 
05:50	35.8	35.8	35.8	81	30.6	3	7	248	0.00	29.698 
05:55	35.8	35.8	35.8	82	30.9	3	7	248	0.00	29.698 
06:00	35.6	35.6	35.6	82	30.7	2	6	248	0.00	29.708 
06:05	35.6	35.6	35.6	83	31.0	3	7	248	0.00	29.708 
06:10	35.5	35.5	35.5	83	30.9	2	6	248	0.00	29.708 
06:15	35.5	35.5	35.5	84	31.2	3	6	248	0.00	29.712 
06:20	35.5	35.5	35.5	84	31.2	2	5	248	0.00	29.712 
06:25	35.3	35.3	35.3	84	31.0	3	6	270	0.00	29.712 
06:30	35.3	35.3	35.3	85	31.2	2	4	248	0.00	29.714 
06:35	35.3	35.3	35.3	86	31.5	2	7	248	0.00	29.714 
06:40	35.2	35.2	35.2	86	31.4	2	5	270	0.00	29.714 
06:45	35.2	35.2	35.2	86	31.4	2	5	248	0.00	29.723 
06:50	35.3	35.3	35.3	86	31.5	2	6	248	0.00	29.723 
06:55	35.3	35.3	35.3	86	31.5	2	5	248	0.00	29.723 
07:00	35.5	35.5	35.5	85	31.4	2	5	248	0.00	29.728 
07:05	35.6	35.6	35.6	84	31.3	2	5	248	0.00	29.728 
07:10	35.6	35.6	35.6	84	31.3	2	4	225	0.00	29.728 
07:15	35.8	35.8	35.8	83	31.2	3	5	270	0.00	29.734 
07:20	35.9	35.9	35.9	82	31.0	2	6	248	0.00	29.734 
07:25	35.9	35.9	35.9	81	30.6	2	4	248	0.00	29.734 
07:30	35.9	35.9	35.9	81	30.6	2	5	248	0.00	29.742 
07:35	36.0	36.0	36.0	81	30.7	2	6	248	0.00	29.742 
07:40	36.0	36.0	36.0	81	30.7	2	6	248	0.00	29.742 
07:45	36.0	36.0	36.0	81	30.7	2	5	270	0.00	29.746 
07:50	36.0	36.0	36.0	81	30.7	2	6	225	0.00	29.746 
07:55	36.0	36.0	36.0	81	30.7	2	6	270	0.00	29.746 
08:00	36.0	36.0	36.0	81	30.7	1	4	270	0.00	29.756 
08:05	36.0	36.0	36.0	81	30.7	2	6	248	0.00	29.756 
08:10	36.0	36.0	36.0	81	30.7	2	5	248	0.00	29.756 
08:15	36.0	36.0	36.0	82	31.0	2	5	248	0.00	29.766 
08:20	36.0	36.0	36.0	82	31.0	3	5	270	0.00	29.766 
08:25	36.0	36.0	36.0	82	31.0	2	6	248	0.00	29.766 
08:30	36.0	36.0	36.0	82	31.0	2	5	248	0.00	29.766 
08:35	36.0	36.0	36.0	82	31.0	3	10	270	0.00	29.766 
08:40	36.0	36.0	36.0	83	31.3	3	6	270	0.00	29.766 
08:45	36.0	36.0	36.0	83	31.3	3	6	270	0.00	29.771 
08:50	36.2	36.2	36.2	83	31.5	3	7	248	0.00	29.771 
08:55	36.2	36.2	36.2	82	31.2	3	6	248	0.00	29.771 
09:00	36.2	36.2	36.2	82	31.2	3	5	248	0.00	29.781 
09:05	36.2	36.2	36.2	82	31.2	3	6	248	0.00	29.781 
09:10	36.3	36.3	36.3	82	31.3	2	6	248	0.00	29.781 
09:15	36.3	36.3	36.3	82	31.3	3	6	248	0.00	29.789 
09:20	36.5	36.5	36.5	82	31.5	2	5	270	0.00	29.789 
09:25	36.6	36.6	36.6	82	31.6	2	6	248	0.00	29.789 
09:30	36.8	36.8	36.8	82	31.8	2	5	248	0.00	29.792 
09:35	36.9	36.9	36.9	81	31.6	2	7	270	0.00	29.792 
09:40	37.0	37.0	37.0	81	31.7	3	4	248	0.00	29.792 
09:45	37.5	37.5	37.5	81	32.2	2	4	248	0.00	29.801 
09:50	37.9	37.9	37.9	79	32.0	3	6	248	0.00	29.801 
09:55	38.0	38.0	38.0	78	31.8	3	7	248	0.00	29.801 
10:00	38.0	38.0	38.0	78	31.8	2	5	248	0.00	29.811 
10:05	37.9	37.9	37.9	77	31.3	2	5	270	0.00	29.811 
10:10	37.8	37.8	37.8	77	31.2	2	5	270	0.00	29.811 
10:15	37.9	37.9	37.9	77	31.3	2	5	270	0.00	29.820 
10:20	37.9	37.9	37.9	77	31.3	2	6	248	0.00	29.820 
10:25	37.9	37.9	37.9	77	31.3	1	5	248	0.00	29.820 
10:30	37.8	37.8	37.8	77	31.2	2	6	270	0.00	29.823 
10:35	37.8	37.8	37.8	77	31.2	2	6	248	0.00	29.823 
10:40	37.8	37.8	37.8	77	31.2	2	5	248	0.00	29.823 
10:45	37.8	37.8	37.8	77	31.2	2	5	248	0.00	29.830 
10:50	37.8	37.8	37.8	77	31.2	1	4	248	0.00	29.830 
10:55	37.6	37.6	37.6	77	31.1	2	5	248	0.00	29.830 
11:00	37.6	37.6	37.6	76	30.7	2	5	248	0.00	29.834 
11:05	37.6	37.6	37.6	77	31.1	2	4	248	0.00	29.834 
11:10	37.6	37.6	37.6	77	31.1	2	4	270	0.00	29.834 
11:15	37.6	37.6	37.6	76	30.7	2	5	270	0.00	29.840 
11:20	37.8	37.8	37.8	76	30.9	2	5	248	0.00	29.840 
11:25	37.8	37.8	37.8	76	30.9	2	5	248	0.00	29.840 
11:30	37.8	37.8	37.8	76	30.9	1	4	248	0.00	29.849 
11:35	37.9	37.9	37.9	77	31.3	1	4	270	0.00	29.849 
11:40	37.9	37.9	37.9	77	31.3	1	4	248	0.00	29.849 
11:45	37.9	37.9	37.9	77	31.3	2	5	248	0.00	29.852 
11:50	37.9	37.9	37.9	77	31.3	2	4	248	0.00	29.852 
11:55	38.0	38.0	38.0	77	31.4	2	5	248	0.00	29.852 
12:00	38.0	38.0	38.0	77	31.4	2	5	270	0.00	29.854 
12:05	37.9	37.9	37.9	77	31.3	2	5	248	0.00	29.854 
12:10	37.9	37.9	37.9	77	31.3	2	4	270	0.00	29.854 
12:15	38.0	38.0	38.0	77	31.4	2	4	248	0.00	29.861 
12:20	38.2	38.2	38.2	77	31.6	2	4	248	0.00	29.861 
12:25	38.3	38.3	38.3	77	31.7	2	9	248	0.00	29.861 
12:30	38.3	38.3	38.3	77	31.7	2	8	270	0.00	29.860 
12:35	38.3	38.3	38.3	77	31.7	2	4	270	0.00	29.860 
12:40	38.5	38.5	38.5	77	31.9	2	4	248	0.00	29.860 
12:45	38.5	38.5	38.5	77	31.9	2	6	225	0.00	29.859 
12:50	38.6	38.6	38.6	77	32.0	2	5	270	0.00	29.859 
12:55	38.9	38.9	38.9	76	32.0	2	6	248	0.00	29.859 
13:00	38.9	38.9	38.9	76	32.0	2	6	248	0.00	29.856 
13:05	38.9	38.9	38.9	75	31.7	3	5	270	0.00	29.856 
13:10	38.9	38.9	38.9	76	32.0	2	5	270	0.00	29.856 
13:15	39.1	39.1	39.1	75	31.9	3	7	248	0.00	29.864 
13:20	39.1	39.1	39.1	75	31.9	3	6	248	0.00	29.864 
13:25	39.1	39.1	39.1	75	31.9	2	4	248	0.00	29.864 
13:30	39.2	39.2	39.2	75	32.0	1	9	248	0.00	29.866 
13:35	39.1	39.1	39.1	75	31.9	2	8	270	0.00	29.866 
13:40	38.9	38.9	38.9	75	31.7	2	4	270	0.00	29.866 
13:45	39.1	39.1	39.1	75	31.9	2	6	248	0.00	29.866 
13:50	39.1	39.1	39.1	74	31.5	2	7	270	0.00	29.866 
13:55	39.2	39.2	39.2	74	31.6	1	3	248	0.00	29.866 
14:00	39.2	39.2	39.2	74	31.6	2	4	270	0.00	29.859 
14:05	39.5	39.5	39.5	75	32.2	1	4	248	0.00	29.859 
14:10	39.3	39.3	39.3	74	31.7	2	6	248	0.00	29.859 
14:15	39.2	39.2	39.2	75	32.0	2	4	248	0.00	29.863 
14:20	39.2	39.2	39.2	75	32.0	2	4	248	0.00	29.863 
14:25	39.3	39.3	39.3	75	32.0	2	5	248	0.00	29.863 
14:30	39.3	39.3	39.3	74	31.7	2	4	248	0.00	29.867 
14:35	39.1	39.1	39.1	74	31.5	2	5	248	0.00	29.867 
14:40	39.1	39.1	39.1	75	31.9	1	4	248	0.00	29.867 
14:45	39.1	39.1	39.1	75	31.9	1	3	248	0.00	29.866 
14:50	39.2	39.2	39.2	74	31.6	1	4	248	0.00	29.866 
14:55	39.3	39.3	39.3	73	31.4	2	6	248	0.00	29.866 
15:00	39.2	39.2	39.2	73	31.3	2	5	248	0.00	29.870 
15:05	39.1	39.1	39.1	74	31.5	1	6	248	0.00	29.870 
15:10	39.2	39.2	39.2	74	31.6	1	4	248	0.00	29.870 
15:15	39.2	39.2	39.2	74	31.6	1	3	248	0.00	29.870 
15:20	39.3	39.3	39.3	73	31.4	1	4	248	0.00	29.870 
15:25	39.3	39.3	39.3	73	31.4	2	5	270	0.00	29.870 
15:30	39.2	39.2	39.2	73	31.3	2	4	270	0.00	29.871 
15:35	39.2	39.2	39.2	73	31.3	2	4	248	0.00	29.871 
15:40	39.2	39.2	39.2	73	31.3	2	6	248	0.00	29.871 
15:45	39.2	39.2	39.2	73	31.3	1	4	248	0.00	29.872 
15:50	39.2	39.2	39.2	72	30.9	1	3	248	0.00	29.872 
15:55	39.3	39.3	39.3	73	31.4	0	3	248	0.00	29.872 
16:00	39.3	39.3	39.3	72	31.0	2	4	248	0.00	29.869 
16:05	39.2	39.2	39.2	72	30.9	1	5	248	0.00	29.869 
16:10	39.2	39.2	39.2	72	30.9	0	3	248	0.00	29.869 
16:15	39.2	39.2	39.2	72	30.9	1	4	248	0.00	29.869 
16:20	39.1	39.1	39.1	72	30.8	2	6	248	0.00	29.869 
16:25	39.1	39.1	39.1	72	30.8	1	3	248	0.00	29.869 
16:30	38.9	38.9	38.9	72	30.7	1	4	270	0.00	29.865 
16:35	38.9	38.9	38.9	72	30.7	3	5	248	0.00	29.865 
16:40	38.8	38.8	38.8	72	30.6	2	6	248	0.00	29.865 
16:45	38.8	38.8	38.8	72	30.6	1	4	248	0.00	29.870 
16:50	38.6	38.6	38.6	72	30.4	1	3	248	0.00	29.870 
16:55	38.6	38.6	38.6	73	30.7	1	4	248	0.00	29.870 
17:00	38.6	38.6	38.6	73	30.7	1	4	248	0.00	29.873 
17:05	38.6	38.6	38.6	73	30.7	0	2	248	0.00	29.873 
17:10	38.5	38.5	38.5	73	30.6	1	2	248	0.00	29.873 
17:15	38.5	38.5	38.5	74	30.9	0	3	248	0.00	29.872 
17:20	38.5	38.5	38.5	73	30.6	1	3	248	0.00	29.872 
17:25	38.3	38.3	38.3	73	30.4	0	2	248	0.00	29.872 
17:30	38.3	38.3	38.3	73	30.4	0	1	248	0.00	29.874 
17:35	38.3	38.3	38.3	73	30.4	0	2	248	0.00	29.874 
17:40	38.3	38.3	38.3	73	30.4	0	2	248	0.00	29.874 
17:45	38.3	38.3	38.3	73	30.4	0	3	248	0.00	29.877 
17:50	38.3	38.3	38.3	73	30.4	0	3	248	0.00	29.877 
17:55	38.3	38.3	38.3	73	30.4	1	3	248	0.00	29.877 
18:00	38.2	38.2	38.2	73	30.3	1	5	248	0.00	29.881 
18:05	38.2	38.2	38.2	73	30.3	0	3	248	0.00	29.881 
18:10	38.2	38.2	38.2	73	30.3	0	2	248	0.00	29.881 
18:15	38.0	38.0	38.0	73	30.1	0	2	248	0.00	29.879 
18:20	38.0	38.0	38.0	74	30.5	0	1	248	0.00	29.879 
18:25	38.0	38.0	38.0	74	30.5	0	1	248	0.00	29.879 
18:30	38.0	38.0	38.0	74	30.5	0	1	248	0.00	29.882 
18:35	38.0	38.0	38.0	74	30.5	0	2	248	0.00	29.882 
18:40	38.0	38.0	38.0	75	30.8	0	1	248	0.00	29.882 
18:45	37.9	37.9	37.9	76	31.0	0	1	248	0.00	29.886 
18:50	37.9	37.9	37.9	76	31.0	0	0	---	0.00	29.886 
18:55	37.8	37.8	37.8	76	30.9	0	2	248	0.00	29.886 
19:00	37.8	37.8	37.8	75	30.6	0	2	248	0.00	29.885 
19:05	37.8	37.8	37.8	75	30.6	0	1	248	0.00	29.885 
19:10	37.6	37.6	37.6	75	30.4	0	2	248	0.00	29.885 
19:15	37.6	37.6	37.6	76	30.7	0	1	248	0.00	29.881 
19:20	37.6	37.6	37.6	76	30.7	0	3	248	0.00	29.881 
19:25	37.6	37.6	37.6	76	30.7	0	1	248	0.00	29.881 
19:30	37.5	37.5	37.5	77	31.0	0	2	248	0.00	29.888 
19:35	37.5	37.5	37.5	77	31.0	0	2	248	0.00	29.888 
19:40	37.5	37.5	37.5	77	31.0	0	1	248	0.00	29.888 
19:45	37.5	37.5	37.5	77	31.0	0	1	248	0.00	29.888 
19:50	37.3	37.3	37.3	77	30.8	0	0	---	0.00	29.888 
19:55	37.2	37.2	37.2	77	30.7	0	1	248	0.00	29.888 
20:00	37.0	37.0	37.0	77	30.5	0	0	---	0.00	29.884 
20:05	36.8	36.8	36.8	77	30.3	0	0	---	0.00	29.884 
20:10	36.5	36.5	36.5	77	30.0	0	0	---	0.00	29.884 
20:15	36.0	36.0	36.0	77	29.5	0	0	---	0.00	29.879 
20:20	35.8	35.8	35.8	77	29.3	0	0	---	0.00	29.879 
20:25	35.3	35.3	35.3	78	29.1	0	0	---	0.00	29.879 
20:30	34.9	34.9	34.9	79	29.1	0	0	---	0.00	29.876 
20:35	34.4	34.4	34.4	80	28.9	0	0	---	0.00	29.876 
20:40	34.0	34.0	34.0	80	28.5	0	0	---	0.00	29.876 
20:45	33.7	33.7	33.7	81	28.5	0	0	---	0.00	29.872 
20:50	33.5	33.5	33.5	82	28.6	0	0	---	0.00	29.872 
20:55	33.2	33.2	33.2	83	28.6	0	0	---	0.00	29.872 
21:00	33.1	33.1	33.1	84	28.8	0	1	248	0.00	29.862 
21:05	33.1	33.1	33.1	84	28.8	0	1	248	0.00	29.862 
21:10	32.9	32.9	32.9	84	28.6	0	0	---	0.00	29.862 
21:15	32.9	32.9	32.9	84	28.6	0	0	---	0.00	29.864 
21:20	32.8	32.8	32.8	84	28.5	0	0	---	0.00	29.864 
21:25	32.7	32.7	32.7	85	28.7	0	0	---	0.00	29.864 
21:30	32.5	32.5	32.5	85	28.5	0	0	---	0.00	29.873 
21:35	32.4	32.4	32.4	85	28.4	0	0	---	0.00	29.873 
21:40	32.1	32.1	32.1	85	28.1	0	0	---	0.00	29.873 
21:45	31.9	31.9	31.9	85	27.9	0	0	---	0.00	29.873 
21:50	31.8	31.8	31.8	85	27.8	0	0	---	0.00	29.873 
21:55	31.8	31.8	31.8	85	27.8	0	0	---	0.00	29.873 
22:00	31.6	31.6	31.6	86	27.9	0	0	---	0.00	29.874 
22:05	31.6	31.6	31.6	86	27.9	0	0	---	0.00	29.874 
22:10	31.5	31.5	31.5	86	27.8	0	0	---	0.00	29.874 
22:15	31.5	31.5	31.5	87	28.1	0	0	---	0.00	29.873 
22:20	31.3	31.3	31.3	87	27.9	0	0	---	0.00	29.873 
22:25	31.2	31.2	31.2	87	27.8	0	0	---	0.00	29.873 
22:30	31.2	31.2	31.2	87	27.8	0	0	---	0.00	29.877 
22:35	31.0	31.0	31.0	88	27.9	0	0	---	0.00	29.877 
22:40	31.0	31.0	31.0	88	27.9	0	0	---	0.00	29.877 
22:45	31.0	31.0	31.0	88	27.9	0	0	---	0.00	29.878 
22:50	31.2	31.2	31.2	88	28.1	0	0	---	0.00	29.878 
22:55	31.2	31.2	31.2	89	28.3	0	0	---	0.00	29.878 
23:00	31.3	31.3	31.3	89	28.4	0	0	---	0.00	29.875 
23:05	31.3	31.3	31.3	89	28.4	0	0	---	0.00	29.875 
23:10	31.3	31.3	31.3	89	28.4	0	1	248	0.00	29.875 
23:15	31.5	31.5	31.5	89	28.6	0	1	248	0.00	29.872 
23:20	31.6	31.6	31.6	89	28.7	0	1	248	0.00	29.872 
23:25	31.8	31.8	31.8	89	28.9	0	1	248	0.00	29.872 
23:30	31.8	31.8	31.8	89	28.9	0	1	248	0.00	29.869 
23:35	31.8	31.8	31.8	89	28.9	0	0	---	0.00	29.869 
23:40	31.8	31.8	31.8	89	28.9	0	0	---	0.00	29.869 
23:45	31.8	31.8	31.8	89	28.9	0	0	---	0.00	29.872 
23:50	31.6	31.6	31.6	89	28.7	0	0	---	0.00	29.872 
23:55	31.5	31.5	31.5	89	28.6	0	0	---	0.00	29.872 

CoCoRaHS
IN-AL-39
A2 Web Hosting
Creative Commons License
GoDaddy
search engine by freefind advanced

loaded 2018-11-20 14:18:04 • last modified 2010-11-18 10:43:29
Privacy PolicyDisclaimer
• wx.awcolley.com is powered by PmWiki v.2002016 •
• all content (unless otherwise noted) © 2018 A W Colley